Time;durP1;ratioP1;P1;durP2;ratioP2;P2;SDS_P1;SDS_P2;PMS_P1;PMS_P2;Temp;Humidity;BMP_temperature;BMP_pressure;BME280_temperature;BME280_humidity;BME280_pressure;Samples;Min_cycle;Max_cycle;Signal;HPM_P1;HPM_P2
2021/06/02 00:01:51;;;;;;;15.77;7.03;;;;;;;;;;4822995;29;20398;-66
2021/06/02 00:04:19;;;;;;;17.85;7.30;;;;;;;;;;4823058;29;20614;-66
2021/06/02 00:06:46;;;;;;;13.82;7.30;;;;;;;;;;4823361;29;20080;-66
2021/06/02 00:09:13;;;;;;;14.95;7.15;;;;;;;;;;4824720;29;20022;-67
2021/06/02 00:11:39;;;;;;;14.63;7.22;;;;;;;;;;4824676;29;20046;-67
2021/06/02 00:14:05;;;;;;;15.10;7.53;;;;;;;;;;4824844;29;20114;-66
2021/06/02 00:16:31;;;;;;;16.40;7.53;;;;;;;;;;4824613;29;20073;-67
2021/06/02 00:18:58;;;;;;;16.00;7.25;;;;;;;;;;4867044;29;20037;-67
2021/06/02 00:21:24;;;;;;;14.77;7.35;;;;;;;;;;4900983;29;20092;-66
2021/06/02 00:23:50;;;;;;;15.60;7.20;;;;;;;;;;4900749;29;20362;-65
2021/06/02 00:26:17;;;;;;;14.40;7.20;;;;;;;;;;4900533;29;20024;-65
2021/06/02 00:28:43;;;;;;;12.75;7.43;;;;;;;;;;4900607;29;20040;-67
2021/06/02 00:31:10;;;;;;;15.45;7.78;;;;;;;;;;4900350;29;20441;-66
2021/06/02 00:33:37;;;;;;;14.60;7.65;;;;;;;;;;4900441;29;20029;-66
2021/06/02 00:36:03;;;;;;;15.75;7.80;;;;;;;;;;4900579;29;20104;-66
2021/06/02 00:38:30;;;;;;;16.42;7.60;;;;;;;;;;4900573;29;20076;-66
2021/06/02 00:40:56;;;;;;;12.82;6.88;;;;;;;;;;4900773;29;20056;-65
2021/06/02 00:43:22;;;;;;;13.57;7.57;;;;;;;;;;4900511;29;20084;-65
2021/06/02 00:45:48;;;;;;;15.07;7.30;;;;;;;;;;4900490;29;20029;-65
2021/06/02 00:48:15;;;;;;;12.38;6.63;;;;;;;;;;4900117;29;20024;-66
2021/06/02 00:50:48;;;;;;;12.95;7.05;;;;;;;;;;4898569;29;20092;-65
2021/06/02 00:53:14;;;;;;;14.30;7.85;;;;;;;;;;4898682;29;20029;-66
2021/06/02 00:55:40;;;;;;;12.45;6.90;;;;;;;;;;4898636;29;20107;-66
2021/06/02 00:58:09;;;;;;;19.67;7.93;;;;;;;;;;4898234;29;20064;-66
2021/06/02 01:00:35;;;;;;;12.27;6.78;;;;;;;;;;4898592;29;20065;-65
2021/06/02 01:03:03;;;;;;;13.00;7.00;;;;;;;;;;4898457;29;20076;-66
2021/06/02 01:05:29;;;;;;;13.30;7.05;;;;;;;;;;4898344;29;20368;-65
2021/06/02 01:08:00;;;;;;;12.95;7.78;;;;;;;;;;4898506;29;20072;-65
2021/06/02 01:10:27;;;;;;;12.93;7.65;;;;;;;;;;4898453;29;20465;-65
2021/06/02 01:12:56;;;;;;;12.20;7.15;;;;;;;;;;4898333;29;20087;-66
2021/06/02 01:15:22;;;;;;;10.95;6.47;;;;;;;;;;4898047;29;20028;-66
2021/06/02 01:17:48;;;;;;;12.52;6.88;;;;;;;;;;4897893;29;20115;-65
2021/06/02 01:20:15;;;;;;;10.05;6.40;;;;;;;;;;4881369;29;20024;-67
2021/06/02 01:22:41;;;;;;;13.02;6.72;;;;;;;;;;4898243;29;20465;-66
2021/06/02 01:25:12;;;;;;;10.98;6.55;;;;;;;;;;4898315;29;20252;-65
2021/06/02 01:27:38;;;;;;;14.30;6.57;;;;;;;;;;4897862;29;20037;-65
2021/06/02 01:30:06;;;;;;;11.95;6.35;;;;;;;;;;4897950;29;20048;-65
2021/06/02 01:32:51;;;;;;;11.82;6.47;;;;;;;;;;4897885;29;20043;-66
2021/06/02 01:35:17;;;;;;;11.48;6.28;;;;;;;;;;4897847;29;20119;-65
2021/06/02 01:38:12;;;;;;;10.60;6.13;;;;;;;;;;4897999;29;20047;-65
2021/06/02 01:40:41;;;;;;;12.32;6.38;;;;;;;;;;4897877;29;20031;-65
2021/06/02 01:43:10;;;;;;;13.63;6.82;;;;;;;;;;4897739;29;20095;-64
2021/06/02 01:45:42;;;;;;;14.18;6.53;;;;;;;;;;4897857;29;20048;-64
2021/06/02 01:48:20;;;;;;;17.08;6.65;;;;;;;;;;4897671;29;20076;-65
2021/06/02 01:50:46;;;;;;;16.05;7.28;;;;;;;;;;4897803;29;20033;-65
2021/06/02 01:53:22;;;;;;;11.73;7.20;;;;;;;;;;4897634;29;20484;-66
2021/06/02 01:56:06;;;;;;;12.60;6.43;;;;;;;;;;4897291;29;20043;-64
2021/06/02 01:58:51;;;;;;;11.95;6.95;;;;;;;;;;4897688;29;20088;-66
2021/06/02 02:01:32;;;;;;;12.57;6.70;;;;;;;;;;4897976;29;20037;-66
2021/06/02 02:04:17;;;;;;;19.77;6.68;;;;;;;;;;4898326;29;20068;-65
2021/06/02 02:06:58;;;;;;;13.25;6.60;;;;;;;;;;4897424;29;20032;-66
2021/06/02 02:09:28;;;;;;;11.90;6.22;;;;;;;;;;4897479;29;20028;-66
2021/06/02 02:12:15;;;;;;;14.57;6.93;;;;;;;;;;4897319;29;20032;-66
2021/06/02 02:15:00;;;;;;;12.77;6.65;;;;;;;;;;4897102;29;20035;-65
2021/06/02 02:17:45;;;;;;;14.18;6.90;;;;;;;;;;4896979;29;20088;-66
2021/06/02 02:20:23;;;;;;;12.45;7.25;;;;;;;;;;4896940;29;20032;-66
2021/06/02 02:22:55;;;;;;;13.95;7.03;;;;;;;;;;4897195;29;20031;-65
2021/06/02 02:25:21;;;;;;;13.20;7.00;;;;;;;;;;4897096;29;20484;-66
2021/06/02 02:28:00;;;;;;;11.85;6.70;;;;;;;;;;4896711;29;20377;-65
2021/06/02 02:30:28;;;;;;;11.90;6.35;;;;;;;;;;4896934;29;20040;-66
2021/06/02 02:32:56;;;;;;;17.30;7.28;;;;;;;;;;4896825;29;20032;-65
2021/06/02 02:35:40;;;;;;;13.50;7.10;;;;;;;;;;4896950;29;20052;-65
2021/06/02 02:38:25;;;;;;;10.40;6.53;;;;;;;;;;4896572;29;20044;-65
2021/06/02 02:40:56;;;;;;;10.65;7.00;;;;;;;;;;4896530;29;20057;-65
2021/06/02 02:43:25;;;;;;;13.50;7.10;;;;;;;;;;4896723;29;20025;-65
2021/06/02 02:46:08;;;;;;;15.20;7.28;;;;;;;;;;4896720;29;20119;-65
2021/06/02 02:48:48;;;;;;;13.45;7.57;;;;;;;;;;4896708;29;20036;-65
2021/06/02 02:51:18;;;;;;;14.80;8.05;;;;;;;;;;4896888;29;20430;-65
2021/06/02 02:53:46;;;;;;;14.38;8.07;;;;;;;;;;4896390;29;20447;-64
2021/06/02 02:56:17;;;;;;;13.45;7.72;;;;;;;;;;4896090;29;20143;-65
2021/06/02 02:59:02;;;;;;;16.05;7.75;;;;;;;;;;4879645;29;20041;-65
2021/06/02 03:01:51;;;;;;;15.68;7.82;;;;;;;;;;4896070;29;20745;-66
2021/06/02 03:04:24;;;;;;;11.85;7.22;;;;;;;;;;4820381;29;20130;-65
2021/06/02 03:06:53;;;;;;;13.93;7.40;;;;;;;;;;4820583;29;20046;-65
2021/06/02 03:09:22;;;;;;;13.98;6.95;;;;;;;;;;4820285;29;20034;-65
2021/06/02 03:11:51;;;;;;;12.43;7.13;;;;;;;;;;4820516;29;20044;-65
2021/06/02 03:14:17;;;;;;;13.65;6.93;;;;;;;;;;4820325;29;20475;-65
2021/06/02 03:16:46;;;;;;;13.93;7.68;;;;;;;;;;4819626;29;20129;-65
2021/06/02 03:19:14;;;;;;;13.32;7.22;;;;;;;;;;4820511;29;20038;-65
2021/06/02 03:21:53;;;;;;;13.38;7.20;;;;;;;;;;4820476;29;20054;-65
2021/06/02 03:24:19;;;;;;;13.13;7.35;;;;;;;;;;4820479;29;20511;-65
2021/06/02 03:26:52;;;;;;;14.38;6.78;;;;;;;;;;4820427;29;20163;-65
2021/06/02 03:29:27;;;;;;;14.18;6.90;;;;;;;;;;4820254;29;20060;-65
2021/06/02 03:31:56;;;;;;;13.25;6.90;;;;;;;;;;4820249;29;20436;-65
2021/06/02 03:34:23;;;;;;;13.38;6.65;;;;;;;;;;4820062;29;20555;-65
2021/06/02 03:37:07;;;;;;;10.73;6.38;;;;;;;;;;4820179;29;20034;-65
2021/06/02 03:39:39;;;;;;;13.75;7.05;;;;;;;;;;4819841;29;20026;-66
2021/06/02 03:42:23;;;;;;;15.15;6.65;;;;;;;;;;4883645;29;20400;-65
2021/06/02 03:45:01;;;;;;;13.70;6.50;;;;;;;;;;4895906;29;20053;-65
2021/06/02 03:47:45;;;;;;;14.00;7.00;;;;;;;;;;4896214;29;20076;-65
2021/06/02 03:50:14;;;;;;;13.85;6.60;;;;;;;;;;4896033;29;20028;-65
2021/06/02 03:52:50;;;;;;;13.10;6.70;;;;;;;;;;4896262;29;20029;-65
2021/06/02 03:55:27;;;;;;;11.77;6.50;;;;;;;;;;4896390;29;20084;-65
2021/06/02 03:57:55;;;;;;;12.70;6.47;;;;;;;;;;4895511;29;20052;-66
2021/06/02 04:00:27;;;;;;;9.88;6.28;;;;;;;;;;4895468;29;20063;-66
2021/06/02 04:02:56;;;;;;;16.38;7.03;;;;;;;;;;4895996;29;20024;-66
2021/06/02 04:05:22;;;;;;;10.68;6.50;;;;;;;;;;4895645;29;20050;-66
2021/06/02 04:07:52;;;;;;;12.15;6.38;;;;;;;;;;4895869;29;20029;-66
2021/06/02 04:10:40;;;;;;;11.23;6.53;;;;;;;;;;4895474;29;20028;-66
2021/06/02 04:13:25;;;;;;;12.13;6.50;;;;;;;;;;4895736;29;20032;-66
2021/06/02 04:16:01;;;;;;;11.45;6.43;;;;;;;;;;4895759;29;20044;-66
2021/06/02 04:18:28;;;;;;;12.80;6.68;;;;;;;;;;4895560;29;20132;-67
2021/06/02 04:20:55;;;;;;;11.02;6.43;;;;;;;;;;4878843;29;20378;-65
2021/06/02 04:23:22;;;;;;;11.73;6.50;;;;;;;;;;4895536;29;20405;-66
2021/06/02 04:25:49;;;;;;;12.65;6.55;;;;;;;;;;4895604;29;20111;-66
2021/06/02 04:28:16;;;;;;;12.55;6.85;;;;;;;;;;4897373;29;20072;-66
2021/06/02 04:30:47;;;;;;;10.45;6.13;;;;;;;;;;4898765;29;20033;-66
2021/06/02 04:33:16;;;;;;;14.73;9.35;;;;;;;;;;4898860;29;20128;-66
2021/06/02 04:35:43;;;;;;;12.57;8.73;;;;;;;;;;4898624;29;20084;-66
2021/06/02 04:38:10;;;;;;;10.60;5.72;;;;;;;;;;4898926;29;20127;-66
2021/06/02 04:40:39;;;;;;;11.00;5.70;;;;;;;;;;4899059;29;20071;-66
2021/06/02 04:43:06;;;;;;;15.05;5.65;;;;;;;;;;4898624;29;20143;-66
2021/06/02 04:45:36;;;;;;;8.63;5.55;;;;;;;;;;4898815;29;20029;-66
2021/06/02 04:48:03;;;;;;;9.13;5.72;;;;;;;;;;4898810;29;20028;-66
2021/06/02 04:50:48;;;;;;;9.40;5.32;;;;;;;;;;4898648;29;20036;-66
2021/06/02 04:53:17;;;;;;;11.35;6.18;;;;;;;;;;4898673;29;20052;-66
2021/06/02 04:55:52;;;;;;;12.00;5.82;;;;;;;;;;4898597;29;20084;-66
2021/06/02 04:58:29;;;;;;;8.27;5.70;;;;;;;;;;4898173;29;20492;-66
2021/06/02 05:01:07;;;;;;;7.13;5.22;;;;;;;;;;4898255;29;20381;-66
2021/06/02 05:03:48;;;;;;;12.35;9.65;;;;;;;;;;4898125;29;20067;-66
2021/06/02 05:06:29;;;;;;;8.23;4.95;;;;;;;;;;4898192;29;20035;-66
2021/06/02 05:09:14;;;;;;;6.75;5.15;;;;;;;;;;4897946;29;20353;-65
2021/06/02 05:11:59;;;;;;;7.65;5.15;;;;;;;;;;4898158;29;20425;-66
2021/06/02 05:14:31;;;;;;;6.68;4.93;;;;;;;;;;4898456;29;20079;-66
2021/06/02 05:17:03;;;;;;;9.70;5.13;;;;;;;;;;4881234;29;20678;-66
2021/06/02 05:22:12;;;;;;;7.70;5.18;;;;;;;;;;4897644;29;20040;-66
2021/06/02 05:24:57;;;;;;;7.70;4.90;;;;;;;;;;4897721;29;20024;-66
2021/06/02 05:27:41;;;;;;;10.10;4.90;;;;;;;;;;4897611;29;20571;-66
2021/06/02 05:30:26;;;;;;;7.82;4.80;;;;;;;;;;4897554;29;20502;-66
2021/06/02 05:32:52;;;;;;;8.93;4.53;;;;;;;;;;4897422;29;20039;-66
2021/06/02 05:35:33;;;;;;;10.32;5.50;;;;;;;;;;4897585;29;20440;-66
2021/06/02 05:38:11;;;;;;;9.90;4.90;;;;;;;;;;4897691;29;20029;-66
2021/06/02 05:40:37;;;;;;;8.20;5.30;;;;;;;;;;4896660;29;20033;-66
2021/06/02 05:43:09;;;;;;;10.00;5.60;;;;;;;;;;4880686;29;20511;-66
2021/06/02 05:45:35;;;;;;;7.47;5.38;;;;;;;;;;4897152;29;20039;-66
2021/06/02 05:48:12;;;;;;;8.27;5.50;;;;;;;;;;4880330;29;20033;-66
2021/06/02 05:50:44;;;;;;;11.02;6.00;;;;;;;;;;4897219;29;20025;-65
2021/06/02 05:53:10;;;;;;;;;;;;;;;;;;4897988;29;20065;-65
2021/06/02 05:55:44;;;;;;;9.65;5.97;;;;;;;;;;4897187;29;20006;-65
2021/06/02 05:58:36;;;;;;;11.13;6.50;;;;;;;;;;4896608;29;20056;-64
2021/06/02 06:01:21;;;;;;;9.52;6.05;;;;;;;;;;4896909;29;20076;-66
2021/06/02 06:03:53;;;;;;;11.57;6.63;;;;;;;;;;4897496;29;20400;-64
2021/06/02 06:06:29;;;;;;;14.02;6.32;;;;;;;;;;4896932;29;20028;-65
2021/06/02 06:09:10;;;;;;;11.02;5.82;;;;;;;;;;4897164;29;20025;-65
2021/06/02 06:11:55;;;;;;;13.13;6.15;;;;;;;;;;4896850;29;20060;-66
2021/06/02 06:14:40;;;;;;;10.75;5.88;;;;;;;;;;4896858;29;20040;-66
2021/06/02 06:17:25;;;;;;;6.35;4.22;;;;;;;;;;4897013;29;20124;-66
2021/06/02 06:19:54;;;;;;;13.07;4.90;;;;;;;;;;4896992;29;20569;-67
2021/06/02 06:22:30;;;;;;;11.73;5.90;;;;;;;;;;4897153;29;20068;-65
2021/06/02 06:25:02;;;;;;;9.32;5.03;;;;;;;;;;4896851;29;20480;-66
2021/06/02 06:27:35;;;;;;;10.40;5.03;;;;;;;;;;4896771;29;20028;-68
2021/06/02 06:30:04;;;;;;;9.45;6.10;;;;;;;;;;4896514;29;20488;-67
2021/06/02 06:32:31;;;;;;;10.32;5.03;;;;;;;;;;4896169;29;20039;-73
2021/06/02 06:34:59;;;;;;;9.30;5.63;;;;;;;;;;4896277;29;20028;-72
2021/06/02 06:37:31;;;;;;;8.20;4.72;;;;;;;;;;4896585;29;20132;-74
2021/06/02 06:39:58;;;;;;;11.15;5.45;;;;;;;;;;4896804;29;20043;-65
2021/06/02 06:42:27;;;;;;;9.30;5.15;;;;;;;;;;4895798;29;20037;-67
2021/06/02 06:44:56;;;;;;;13.18;6.88;;;;;;;;;;4896029;29;20071;-70
2021/06/02 06:47:24;;;;;;;16.35;5.65;;;;;;;;;;4895087;29;20032;-71
2021/06/02 06:49:52;;;;;;;8.30;4.43;;;;;;;;;;4896273;29;20028;-70
2021/06/02 06:52:18;;;;;;;9.38;4.65;;;;;;;;;;4896251;29;20084;-72
2021/06/02 06:54:45;;;;;;;8.32;4.57;;;;;;;;;;4896499;29;20472;-66
2021/06/02 06:57:11;;;;;;;12.75;4.40;;;;;;;;;;4895543;29;20061;-71
2021/06/02 06:59:39;;;;;;;10.15;4.40;;;;;;;;;;4895373;29;20068;-69
2021/06/02 07:02:05;;;;;;;10.35;5.22;;;;;;;;;;4895460;29;20031;-69
2021/06/02 07:04:33;;;;;;;26.20;6.15;;;;;;;;;;4896323;29;20075;-65
2021/06/02 07:06:59;;;;;;;12.35;5.07;;;;;;;;;;4896378;29;20094;-65
2021/06/02 07:09:25;;;;;;;13.82;5.05;;;;;;;;;;4895956;29;20039;-74
2021/06/02 07:11:54;;;;;;;8.43;4.88;;;;;;;;;;4896048;29;20462;-71
2021/06/02 07:14:29;;;;;;;11.90;4.88;;;;;;;;;;4896038;29;20064;-66
2021/06/02 07:16:57;;;;;;;8.77;4.80;;;;;;;;;;4896136;29;20060;-70
2021/06/02 07:19:23;;;;;;;8.55;5.60;;;;;;;;;;4895689;29;20048;-66
2021/06/02 07:21:50;;;;;;;8.95;5.03;;;;;;;;;;4896339;29;20480;-71
2021/06/02 07:24:20;;;;;;;10.77;4.90;;;;;;;;;;4896051;29;20039;-70
2021/06/02 07:26:46;;;;;;;9.70;5.50;;;;;;;;;;4896175;29;20464;-67
2021/06/02 07:29:13;;;;;;;10.80;5.18;;;;;;;;;;4879002;29;20421;-69
2021/06/02 07:31:39;;;;;;;11.93;5.47;;;;;;;;;;4895742;29;20103;-69
2021/06/02 07:34:06;;;;;;;9.52;5.07;;;;;;;;;;4895519;29;20052;-66
2021/06/02 07:36:32;;;;;;;8.20;5.38;;;;;;;;;;4895816;29;20088;-66
2021/06/02 07:38:59;;;;;;;9.77;6.13;;;;;;;;;;4892404;29;20037;-65
2021/06/02 07:41:25;;;;;;;10.32;5.90;;;;;;;;;;4879841;29;20468;-65
2021/06/02 07:43:51;;;;;;;13.05;5.65;;;;;;;;;;4876853;29;20036;-72
2021/06/02 07:46:17;;;;;;;13.40;5.80;;;;;;;;;;4877094;29;20025;-68
2021/06/02 07:48:43;;;;;;;11.27;4.82;;;;;;;;;;4877034;29;20033;-67
2021/06/02 07:51:09;;;;;;;9.57;5.22;;;;;;;;;;4876682;29;20356;-64
2021/06/02 07:53:35;;;;;;;13.35;5.00;;;;;;;;;;4877130;29;20045;-69
2021/06/02 07:56:01;;;;;;;9.45;5.03;;;;;;;;;;4877151;29;20028;-65
2021/06/02 07:58:27;;;;;;;10.93;4.70;;;;;;;;;;4876985;29;20081;-64
2021/06/02 08:00:53;;;;;;;11.40;5.25;;;;;;;;;;4877146;29;20033;-64
2021/06/02 08:03:19;;;;;;;8.98;5.10;;;;;;;;;;4878893;29;20029;-60
2021/06/02 08:05:46;;;;;;;10.50;4.13;;;;;;;;;;4880149;29;20025;-65
2021/06/02 08:08:12;;;;;;;8.20;3.63;;;;;;;;;;4880745;29;20029;-64
2021/06/02 08:10:38;;;;;;;10.43;4.03;;;;;;;;;;4880746;29;20113;-63
2021/06/02 08:13:04;;;;;;;10.27;4.13;;;;;;;;;;4879851;29;20043;-70
2021/06/02 08:15:31;;;;;;;9.57;4.43;;;;;;;;;;4879979;29;20084;-69
2021/06/02 08:17:57;;;;;;;18.42;4.93;;;;;;;;;;4880186;29;20048;-65
2021/06/02 08:20:23;;;;;;;21.20;8.32;;;;;;;;;;4880153;29;20029;-66
2021/06/02 08:22:49;;;;;;;11.65;5.40;;;;;;;;;;4879592;29;20033;-66
2021/06/02 08:25:16;;;;;;;10.77;4.78;;;;;;;;;;4880080;29;20059;-67
2021/06/02 08:27:43;;;;;;;13.30;5.45;;;;;;;;;;4863074;29;20108;-66
2021/06/02 08:30:10;;;;;;;11.90;4.70;;;;;;;;;;4874785;29;20537;-68
2021/06/02 08:32:37;;;;;;;11.68;4.10;;;;;;;;;;4875833;29;20499;-67
2021/06/02 08:35:04;;;;;;;10.30;4.03;;;;;;;;;;4874694;29;20116;-69
2021/06/02 08:37:30;;;;;;;7.03;3.28;;;;;;;;;;4874578;29;20915;-66
2021/06/02 08:39:56;;;;;;;7.10;3.60;;;;;;;;;;4858064;29;20564;-73
2021/06/02 08:42:22;;;;;;;5.88;3.80;;;;;;;;;;4872431;29;20104;-66
2021/06/02 08:44:49;;;;;;;7.82;3.60;;;;;;;;;;4858796;29;20026;-70
2021/06/02 08:47:15;;;;;;;6.55;3.75;;;;;;;;;;4857864;29;20030;-63
2021/06/02 08:49:41;;;;;;;5.75;2.75;;;;;;;;;;4860367;29;20030;-63
2021/06/02 08:52:08;;;;;;;11.27;2.95;;;;;;;;;;4860278;29;20367;-63
2021/06/02 08:54:34;;;;;;;5.57;2.90;;;;;;;;;;4861163;29;20441;-65
2021/06/02 08:57:05;;;;;;;5.70;3.17;;;;;;;;;;4867146;29;20053;-66
2021/06/02 08:59:31;;;;;;;4.93;2.38;;;;;;;;;;4879373;29;20485;-66
2021/06/02 09:01:58;;;;;;;5.72;3.33;;;;;;;;;;4883300;29;20040;-65
2021/06/02 09:04:25;;;;;;;6.97;2.50;;;;;;;;;;4891896;29;20024;-71
2021/06/02 09:06:51;;;;;;;7.63;2.80;;;;;;;;;;4886230;29;20516;-71
2021/06/02 09:09:19;;;;;;;5.78;2.92;;;;;;;;;;4890667;29;20036;-70
2021/06/02 09:11:49;;;;;;;7.53;2.95;;;;;;;;;;4884357;29;20041;-64
2021/06/02 09:14:31;;;;;;;6.47;2.72;;;;;;;;;;4888436;29;20049;-74
2021/06/02 09:17:07;;;;;;;6.07;2.95;;;;;;;;;;4886802;29;20040;-66
2021/06/02 09:19:33;;;;;;;5.13;2.80;;;;;;;;;;4888588;29;20465;-73
2021/06/02 09:22:00;;;;;;;4.68;2.25;;;;;;;;;;4871934;29;21165;-70
2021/06/02 09:24:46;;;;;;;4.60;2.05;;;;;;;;;;4886960;29;20067;-69
2021/06/02 09:27:12;;;;;;;5.63;2.92;;;;;;;;;;4882695;29;20487;-69
2021/06/02 09:29:48;;;;;;;3.85;1.90;;;;;;;;;;4889977;29;20515;-71
2021/06/02 09:32:16;;;;;;;4.05;2.05;;;;;;;;;;4886765;29;20064;-71
2021/06/02 09:34:42;;;;;;;5.05;2.10;;;;;;;;;;4890628;29;20443;-71
2021/06/02 09:37:08;;;;;;;3.90;1.90;;;;;;;;;;4889890;29;20043;-68
2021/06/02 09:39:44;;;;;;;4.75;2.33;;;;;;;;;;4891995;29;20028;-66
2021/06/02 09:42:18;;;;;;;3.95;2.13;;;;;;;;;;4888675;29;20033;-65
2021/06/02 09:44:56;;;;;;;4.88;1.90;;;;;;;;;;4886949;29;20863;-72
2021/06/02 09:47:22;;;;;;;3.67;2.00;;;;;;;;;;4882592;29;20391;-72
2021/06/02 09:49:48;;;;;;;7.93;2.28;;;;;;;;;;4886213;29;20025;-72
2021/06/02 09:52:15;;;;;;;3.20;2.25;;;;;;;;;;4889972;29;20036;-72
2021/06/02 09:54:41;;;;;;;7.93;2.60;;;;;;;;;;4882878;29;20028;-68
2021/06/02 09:57:19;;;;;;;4.78;1.95;;;;;;;;;;4881544;29;20048;-73
2021/06/02 09:59:55;;;;;;;4.72;2.17;;;;;;;;;;4887107;29;20048;-72
2021/06/02 10:02:21;;;;;;;3.10;1.92;;;;;;;;;;4884794;29;20433;-73
2021/06/02 10:04:58;;;;;;;4.93;2.35;;;;;;;;;;4878094;29;20033;-72
2021/06/02 10:07:24;;;;;;;5.28;2.38;;;;;;;;;;4878438;29;20064;-68
2021/06/02 10:09:50;;;;;;;3.45;2.05;;;;;;;;;;4878044;29;20029;-70
2021/06/02 10:12:16;;;;;;;11.02;3.63;;;;;;;;;;4877074;29;20029;-65
2021/06/02 10:14:53;;;;;;;7.95;3.03;;;;;;;;;;4877323;29;20029;-65
2021/06/02 10:17:28;;;;;;;4.05;2.05;;;;;;;;;;4869364;29;20037;-64
2021/06/02 10:19:55;;;;;;;2.58;1.80;;;;;;;;;;4877644;29;20029;-70
2021/06/02 10:22:22;;;;;;;5.55;2.10;;;;;;;;;;4877786;29;20131;-72
2021/06/02 10:24:48;;;;;;;6.00;2.78;;;;;;;;;;4877618;29;20025;-65
2021/06/02 10:27:15;;;;;;;4.63;2.17;;;;;;;;;;4887432;29;20100;-76
2021/06/02 10:29:41;;;;;;;5.28;2.00;;;;;;;;;;4895814;29;20460;-67
2021/06/02 10:32:07;;;;;;;8.13;2.20;;;;;;;;;;4894358;29;20036;-66
2021/06/02 10:34:33;;;;;;;5.35;2.50;;;;;;;;;;4895830;29;20033;-66
2021/06/02 10:37:00;;;;;;;7.82;2.00;;;;;;;;;;4895535;29;20062;-66
2021/06/02 10:39:27;;;;;;;6.05;2.25;;;;;;;;;;4896891;29;20024;-73
2021/06/02 10:41:57;;;;;;;6.43;2.33;;;;;;;;;;4896162;29;20028;-72
2021/06/02 10:44:27;;;;;;;5.85;2.90;;;;;;;;;;4891099;29;20024;-63
2021/06/02 10:46:54;;;;;;;3.90;1.88;;;;;;;;;;4895953;29;20029;-65
2021/06/02 10:49:27;;;;;;;5.18;2.40;;;;;;;;;;4896375;29;20033;-64
2021/06/02 10:51:54;;;;;;;3.35;1.80;;;;;;;;;;4895562;29;20029;-66
2021/06/02 10:54:21;;;;;;;3.38;1.83;;;;;;;;;;4895474;29;20115;-64
2021/06/02 10:57:00;;;;;;;5.60;2.90;;;;;;;;;;4896054;29;20063;-63
2021/06/02 10:59:26;;;;;;;5.25;2.25;;;;;;;;;;4893653;29;20412;-67
2021/06/02 11:02:11;;;;;;;5.68;2.20;;;;;;;;;;4888909;29;20071;-64
2021/06/02 11:05:04;;;;;;;4.65;1.90;;;;;;;;;;4892885;29;20103;-64
2021/06/02 11:07:33;;;;;;;5.97;2.17;;;;;;;;;;4894637;29;20060;-63
2021/06/02 11:10:05;;;;;;;4.82;2.00;;;;;;;;;;4896728;29;20381;-63
2021/06/02 11:12:31;;;;;;;;;;;;;;;;;;4878302;29;20519;-62
2021/06/02 11:14:57;;;;;;;3.15;2.08;;;;;;;;;;4876253;29;19911;-62
2021/06/02 11:17:23;;;;;;;6.50;2.20;;;;;;;;;;4860281;29;20056;-63
2021/06/02 11:19:51;;;;;;;4.40;1.90;;;;;;;;;;4886892;29;20052;-64
2021/06/02 11:22:18;;;;;;;4.70;1.90;;;;;;;;;;4894987;29;20037;-62
2021/06/02 11:24:45;;;;;;;3.00;1.65;;;;;;;;;;4895032;29;20025;-64
2021/06/02 11:27:11;;;;;;;3.38;1.92;;;;;;;;;;4894366;29;20021;-66
2021/06/02 11:29:38;;;;;;;3.10;2.08;;;;;;;;;;4894588;29;20036;-69
2021/06/02 11:32:17;;;;;;;4.90;1.95;;;;;;;;;;4895181;29;20024;-66
2021/06/02 11:34:44;;;;;;;5.95;2.10;;;;;;;;;;4891923;29;20068;-65
2021/06/02 11:37:11;;;;;;;4.82;1.80;;;;;;;;;;4892791;29;20104;-64
2021/06/02 11:39:38;;;;;;;8.90;2.70;;;;;;;;;;4898737;29;20044;-68
2021/06/02 11:42:06;;;;;;;2.65;1.98;;;;;;;;;;4895602;29;20107;-76
2021/06/02 11:44:33;;;;;;;4.47;2.30;;;;;;;;;;4898648;29;20024;-69
2021/06/02 11:46:59;;;;;;;5.00;2.40;;;;;;;;;;4898986;29;20039;-65
2021/06/02 11:49:25;;;;;;;4.70;1.90;;;;;;;;;;4899077;29;20047;-73
2021/06/02 11:51:52;;;;;;;4.03;2.03;;;;;;;;;;4899246;29;20040;-63
2021/06/02 11:54:18;;;;;;;3.22;1.75;;;;;;;;;;4899590;29;20020;-62
2021/06/02 11:56:44;;;;;;;3.58;2.03;;;;;;;;;;4898986;29;20523;-64
2021/06/02 11:59:10;;;;;;;4.68;1.98;;;;;;;;;;4900136;29;20028;-65
2021/06/02 12:01:36;;;;;;;5.38;1.90;;;;;;;;;;4899885;29;20033;-65
2021/06/02 12:04:03;;;;;;;3.95;2.15;;;;;;;;;;4899535;29;20491;-64
2021/06/02 12:06:33;;;;;;;4.90;1.92;;;;;;;;;;4898798;29;20040;-62
2021/06/02 12:09:02;;;;;;;5.38;2.05;;;;;;;;;;4899404;29;20033;-65
2021/06/02 12:11:29;;;;;;;4.03;2.00;;;;;;;;;;4899277;29;20029;-65
2021/06/02 12:13:55;;;;;;;3.30;1.90;;;;;;;;;;4899524;29;20029;-64
2021/06/02 12:16:25;;;;;;;4.80;2.22;;;;;;;;;;4898393;29;20036;-72
2021/06/02 12:18:52;;;;;;;3.97;1.60;;;;;;;;;;4898566;29;20040;-66
2021/06/02 12:21:21;;;;;;;8.77;2.20;;;;;;;;;;4882080;29;20025;-68
2021/06/02 12:23:50;;;;;;;5.30;1.83;;;;;;;;;;4899271;29;20033;-64
2021/06/02 12:26:17;;;;;;;4.13;2.17;;;;;;;;;;4898802;29;20476;-66
2021/06/02 12:28:44;;;;;;;4.63;2.00;;;;;;;;;;4898887;29;20040;-63
2021/06/02 12:31:27;;;;;;;3.53;1.70;;;;;;;;;;4899034;29;20029;-63
2021/06/02 12:34:03;;;;;;;4.55;1.90;;;;;;;;;;4899183;29;20103;-66
2021/06/02 12:36:31;;;;;;;4.70;1.95;;;;;;;;;;4898663;29;20032;-64
2021/06/02 12:38:57;;;;;;;4.68;1.90;;;;;;;;;;4898637;29;20084;-64
2021/06/02 12:41:24;;;;;;;6.32;1.90;;;;;;;;;;4898898;29;20036;-65
2021/06/02 12:43:50;;;;;;;3.88;2.00;;;;;;;;;;4892538;29;20071;-66
2021/06/02 12:46:16;;;;;;;3.45;1.77;;;;;;;;;;4892618;29;20033;-65
2021/06/02 12:48:43;;;;;;;3.05;1.83;;;;;;;;;;4895817;29;20032;-75
2021/06/02 12:51:14;;;;;;;5.32;2.10;;;;;;;;;;4898245;29;20447;-66
2021/06/02 12:53:41;;;;;;;2.90;1.60;;;;;;;;;;4896548;29;20033;-65
2021/06/02 12:56:08;;;;;;;5.95;1.70;;;;;;;;;;4898180;29;20028;-75
2021/06/02 12:58:35;;;;;;;5.93;2.00;;;;;;;;;;4897796;29;20045;-66
2021/06/02 13:01:08;;;;;;;6.50;2.10;;;;;;;;;;4897633;29;20491;-70
2021/06/02 13:03:36;;;;;;;3.67;2.17;;;;;;;;;;4898333;29;20056;-69
2021/06/02 13:06:02;;;;;;;5.07;1.80;;;;;;;;;;4897363;29;20055;-71
2021/06/02 13:08:39;;;;;;;2.45;1.83;;;;;;;;;;4896765;29;20033;-73
2021/06/02 13:11:06;;;;;;;4.93;1.80;;;;;;;;;;4897925;29;20116;-70
2021/06/02 13:13:32;;;;;;;5.25;2.03;;;;;;;;;;4879270;29;20044;-69
2021/06/02 13:15:59;;;;;;;5.85;2.00;;;;;;;;;;4892402;29;20037;-68
2021/06/02 13:18:30;;;;;;;3.40;1.92;;;;;;;;;;4886011;29;20072;-72
2021/06/02 13:20:56;;;;;;;2.92;1.80;;;;;;;;;;4897066;29;20029;-74
2021/06/02 13:23:27;;;;;;;5.00;2.03;;;;;;;;;;4897381;29;20037;-72
2021/06/02 13:26:00;;;;;;;2.65;1.70;;;;;;;;;;4895667;29;20037;-71
2021/06/02 13:28:27;;;;;;;5.38;1.92;;;;;;;;;;4894589;29;20044;-70
2021/06/02 13:30:59;;;;;;;6.15;2.10;;;;;;;;;;4897527;29;20087;-70
2021/06/02 13:33:36;;;;;;;4.32;2.00;;;;;;;;;;4897628;29;20038;-69
2021/06/02 13:36:05;;;;;;;4.57;2.10;;;;;;;;;;4897548;29;20033;-70
2021/06/02 13:38:31;;;;;;;9.77;2.15;;;;;;;;;;4897361;29;20036;-71
2021/06/02 13:40:57;;;;;;;4.07;2.00;;;;;;;;;;4897085;29;20024;-69
2021/06/02 13:43:24;;;;;;;4.45;1.88;;;;;;;;;;4880669;29;20028;-70
2021/06/02 13:45:54;;;;;;;4.63;1.90;;;;;;;;;;4897643;29;20111;-70
2021/06/02 13:48:24;;;;;;;4.45;2.00;;;;;;;;;;4896998;29;20394;-72
2021/06/02 13:50:50;;;;;;;6.35;1.85;;;;;;;;;;4897535;29;20036;-70
2021/06/02 13:53:16;;;;;;;2.88;1.95;;;;;;;;;;4897582;29;20032;-70
2021/06/02 13:55:42;;;;;;;7.05;2.38;;;;;;;;;;4897644;29;20029;-70
2021/06/02 13:58:12;;;;;;;6.47;2.13;;;;;;;;;;4897162;29;20045;-70
2021/06/02 14:00:39;;;;;;;7.18;2.05;;;;;;;;;;4896621;29;20040;-77
2021/06/02 14:03:05;;;;;;;4.55;2.00;;;;;;;;;;4896994;29;20243;-73
2021/06/02 14:05:31;;;;;;;7.85;2.00;;;;;;;;;;4896794;29;20495;-69
2021/06/02 14:07:57;;;;;;;5.97;2.15;;;;;;;;;;4896309;29;20389;-78
2021/06/02 14:10:23;;;;;;;5.65;1.77;;;;;;;;;;4895999;29;20024;-78
2021/06/02 14:12:49;;;;;;;4.85;1.75;;;;;;;;;;4897378;29;20031;-69
2021/06/02 14:15:15;;;;;;;3.35;1.80;;;;;;;;;;4896607;29;20462;-70
2021/06/02 14:17:42;;;;;;;4.78;1.90;;;;;;;;;;4897018;29;20503;-69
2021/06/02 14:20:08;;;;;;;2.95;2.08;;;;;;;;;;4896824;29;20040;-74
2021/06/02 14:22:36;;;;;;;4.57;1.77;;;;;;;;;;4896754;29;20029;-77
2021/06/02 14:25:03;;;;;;;3.80;1.88;;;;;;;;;;4896814;29;20111;-68
2021/06/02 14:27:29;;;;;;;6.22;2.03;;;;;;;;;;4896786;29;20040;-75
2021/06/02 14:29:55;;;;;;;4.88;2.05;;;;;;;;;;4897033;29;20071;-69
2021/06/02 14:32:22;;;;;;;2.92;1.70;;;;;;;;;;4896513;29;20396;-73
2021/06/02 14:34:48;;;;;;;4.07;2.10;;;;;;;;;;4895693;29;20079;-70
2021/06/02 14:37:14;;;;;;;4.22;2.15;;;;;;;;;;4896299;29;20036;-69
2021/06/02 14:39:40;;;;;;;5.10;1.65;;;;;;;;;;4895977;29;20024;-70
2021/06/02 14:42:07;;;;;;;7.07;1.88;;;;;;;;;;4895841;29;20060;-73
2021/06/02 14:44:33;;;;;;;3.35;2.00;;;;;;;;;;4896442;29;20089;-70
2021/06/02 14:46:59;;;;;;;5.10;2.00;;;;;;;;;;4896544;29;20056;-69
2021/06/02 14:49:25;;;;;;;7.20;2.55;;;;;;;;;;4896719;29;20037;-68
2021/06/02 14:51:56;;;;;;;6.10;1.90;;;;;;;;;;4896581;29;20033;-68
2021/06/02 14:54:23;;;;;;;3.47;1.73;;;;;;;;;;4896389;29;20032;-72
2021/06/02 14:56:49;;;;;;;3.60;1.95;;;;;;;;;;4895913;29;20053;-69
2021/06/02 14:59:16;;;;;;;2.95;1.88;;;;;;;;;;4896322;29;20032;-75